Time;durP1;ratioP1;P1;durP2;ratioP2;P2;SDS_P1;SDS_P2;PMS_P1;PMS_P2;Temp;Humidity;BMP_temperature;BMP_pressure;BME280_temperature;BME280_humidity;BME280_pressure;Samples;Min_cycle;Max_cycle;Signal;HPM_P1;HPM_P2
2023/06/11 00:01:18;;;;;;;0.10;0.10;;;16.40;99.90;;;;;;5011603;28;20121;-86
2023/06/11 00:03:46;;;;;;;1.55;0.75;;;17.10;99.90;;;;;;5011412;28;20049;-86
2023/06/11 00:06:17;;;;;;;0.30;0.30;;;16.30;99.90;;;;;;5011450;28;20120;-86
2023/06/11 00:08:55;;;;;;;17.92;1.42;;;16.40;99.90;;;;;;5009875;28;20089;-86
2023/06/11 00:11:22;;;;;;;0.15;0.15;;;16.50;99.90;;;;;;5011602;28;20417;-88
2023/06/11 00:13:49;;;;;;;1.20;0.93;;;17.70;99.90;;;;;;5011782;28;20057;-86
2023/06/11 00:16:16;;;;;;;0.32;0.32;;;17.40;99.90;;;;;;5026436;28;20057;-87
2023/06/11 00:18:42;;;;;;;1.83;1.67;;;16.70;99.90;;;;;;5011928;28;20115;-87
2023/06/11 00:21:09;;;;;;;0.52;0.40;;;16.70;98.30;;;;;;5009732;28;20064;-87
2023/06/11 00:23:36;;;;;;;0.90;0.60;;;16.60;91.90;;;;;;5011144;28;20461;-87
2023/06/11 00:26:08;;;;;;;0.57;0.57;;;16.90;99.90;;;;;;5026352;28;20050;-87
2023/06/11 00:28:34;;;;;;;0.35;0.25;;;17.00;99.90;;;;;;5011185;28;20378;-87
2023/06/11 00:31:00;;;;;;;0.08;0.08;;;18.00;99.90;;;;;;5009705;28;20057;-87
2023/06/11 00:33:27;;;;;;;0.73;0.47;;;17.20;1.00;;;;;;5009978;28;20085;-87
2023/06/11 00:35:52;;;;;;;0.10;0.10;;;16.70;1.00;;;;;;5010297;28;20523;-87
2023/06/11 00:38:20;;;;;;;0.63;0.60;;;16.70;1.00;;;;;;5025557;28;20045;-87
2023/06/11 00:40:47;;;;;;;1.20;1.10;;;16.70;99.90;;;;;;5011068;28;20488;-87
2023/06/11 00:43:12;;;;;;;0.38;0.38;;;16.70;99.90;;;;;;5011191;28;20042;-86
2023/06/11 00:45:38;;;;;;;1.02;0.75;;;16.60;99.90;;;;;;5011207;28;20053;-86
2023/06/11 00:48:05;;;;;;;0.98;0.75;;;16.60;99.90;;;;;;5012661;28;20042;-87
2023/06/11 00:50:34;;;;;;;3.20;2.08;;;16.50;99.90;;;;;;5016471;28;20061;-87
2023/06/11 00:53:00;;;;;;;2.50;1.52;;;16.40;99.90;;;;;;5032215;28;20046;-87
2023/06/11 00:55:27;;;;;;;1.45;0.75;;;16.40;99.90;;;;;;5014014;28;20045;-86
2023/06/11 00:57:53;;;;;;;0.22;0.22;;;17.10;1.00;;;;;;5030722;28;20046;-87
2023/06/11 01:00:20;;;;;;;0.70;0.68;;;16.30;99.90;;;;;;5015191;28;20382;-87
2023/06/11 01:02:49;;;;;;;1.27;0.47;;;16.30;1.00;;;;;;5014693;28;20057;-86
2023/06/11 01:05:21;;;;;;;0.35;0.32;;;17.40;1.00;;;;;;5014786;28;20054;-87
2023/06/11 01:07:50;;;;;;;0.60;0.57;;;16.40;99.90;;;;;;5014557;28;20081;-87
2023/06/11 01:10:18;;;;;;;1.70;1.60;;;16.10;1.00;;;;;;5013769;28;20505;-86
2023/06/11 01:12:45;;;;;;;0.73;0.65;;;16.10;1.00;;;;;;5013648;28;20873;-87
2023/06/11 01:15:13;;;;;;;1.80;0.90;;;15.90;90.50;;;;;;5014016;28;20050;-86
2023/06/11 01:17:55;;;;;;;1.25;0.93;;;16.00;1.00;;;;;;5013600;28;20148;-87
2023/06/11 01:20:58;;;;;;;1.10;0.75;;;16.40;99.90;;;;;;5014030;28;20053;-87
2023/06/11 01:23:57;;;;;;;0.22;0.22;;;15.80;79.80;;;;;;4991074;28;20069;-87
2023/06/11 01:26:39;;;;;;;2.22;1.38;;;14.50;99.90;;;;;;4996617;28;20061;-87
2023/06/11 01:29:08;;;;;;;2.15;0.52;;;15.60;99.90;;;;;;5012956;28;20054;-87
2023/06/11 01:31:37;;;;;;;1.17;1.08;;;16.40;28.00;;;;;;5028719;28;20834;-86
2023/06/11 01:34:04;;;;;;;0.77;0.70;;;15.70;1.00;;;;;;5014525;28;20042;-86
2023/06/11 01:36:34;;;;;;;2.50;1.35;;;15.60;93.10;;;;;;5014018;28;20054;-87
2023/06/11 01:39:01;;;;;;;2.72;1.77;;;15.70;94.40;;;;;;5013999;28;20470;-87
2023/06/11 01:41:27;;;;;;;0.40;0.40;;;15.60;99.90;;;;;;5013859;28;20101;-86
2023/06/11 01:43:53;;;;;;;1.10;0.88;;;15.60;99.90;;;;;;5011464;28;20349;-86
2023/06/11 01:46:19;;;;;;;0.60;0.40;;;15.70;99.90;;;;;;5013551;28;20041;-86
2023/06/11 01:48:44;;;;;;;1.70;0.77;;;15.70;38.80;;;;;;5013442;28;20050;-87
2023/06/11 01:51:13;;;;;;;0.90;0.65;;;15.70;99.90;;;;;;5013735;28;20080;-87
2023/06/11 01:53:40;;;;;;;0.93;0.77;;;15.60;99.90;;;;;;5013156;28;20512;-86
2023/06/11 01:56:06;;;;;;;1.80;0.77;;;17.00;99.90;;;;;;5011967;28;20065;-87
2023/06/11 01:58:32;;;;;;;7.43;1.05;;;15.60;99.90;;;;;;5012040;28;20038;-87
2023/06/11 02:00:59;;;;;;;11.15;1.85;;;16.40;99.90;;;;;;5013351;28;20049;-86
2023/06/11 02:03:25;;;;;;;0.73;0.60;;;15.70;99.90;;;;;;5028597;28;20142;-87
2023/06/11 02:05:51;;;;;;;0.95;0.40;;;15.70;99.90;;;;;;5013892;28;20077;-87
2023/06/11 02:08:17;;;;;;;0.55;0.55;;;15.70;99.90;;;;;;5011750;28;20092;-87
2023/06/11 02:10:43;;;;;;;16.90;2.08;;;15.10;99.90;;;;;;5028282;28;20056;-87
2023/06/11 02:13:09;;;;;;;0.60;0.35;;;15.60;99.90;;;;;;5013893;28;20451;-87
2023/06/11 02:15:35;;;;;;;1.15;0.57;;;15.70;99.90;;;;;;5013410;28;20046;-87
2023/06/11 02:18:00;;;;;;;3.47;1.75;;;15.80;82.00;;;;;;5013955;28;20057;-87
2023/06/11 02:20:26;;;;;;;3.00;0.47;;;15.90;99.90;;;;;;5013745;28;20133;-87
2023/06/11 02:22:52;;;;;;;0.60;0.60;;;15.80;1.00;;;;;;5011586;28;20417;-87
2023/06/11 02:25:17;;;;;;;0.55;0.43;;;15.70;1.00;;;;;;5028986;28;20048;-87
2023/06/11 02:27:43;;;;;;;1.42;0.82;;;15.70;1.00;;;;;;5013642;28;20480;-87
2023/06/11 02:30:09;;;;;;;0.57;0.57;;;15.70;99.90;;;;;;5013752;28;20073;-87
2023/06/11 02:32:35;;;;;;;0.55;0.47;;;15.60;1.00;;;;;;5013143;28;20484;-87
2023/06/11 02:35:01;;;;;;;0.93;0.82;;;15.60;15.90;;;;;;5012808;28;20056;-87
2023/06/11 02:37:26;;;;;;;1.48;0.93;;;16.20;1.00;;;;;;5028695;28;20049;-87
2023/06/11 02:39:52;;;;;;;1.42;0.98;;;15.70;1.00;;;;;;5012668;28;20065;-87
2023/06/11 02:42:18;;;;;;;2.15;1.15;;;15.50;90.20;;;;;;5015142;28;20077;-87
2023/06/11 02:44:43;;;;;;;2.40;1.80;;;16.30;99.90;;;;;;5015142;28;20493;-87
2023/06/11 02:47:09;;;;;;;0.82;0.68;;;14.70;99.90;;;;;;5013296;28;20073;-87
2023/06/11 02:49:35;;;;;;;1.77;1.05;;;16.00;99.90;;;;;;5013936;28;20050;-87
2023/06/11 02:52:00;;;;;;;1.27;0.98;;;15.30;99.90;;;;;;5014424;28;20042;-87
2023/06/11 02:54:26;;;;;;;2.22;1.48;;;15.20;99.90;;;;;;5028728;28;20046;-88
2023/06/11 02:56:52;;;;;;;9.02;1.10;;;15.20;1.00;;;;;;5014450;28;20038;-86
2023/06/11 02:59:17;;;;;;;1.75;1.33;;;15.20;1.00;;;;;;5011813;28;20053;-87
2023/06/11 03:01:43;;;;;;;1.15;0.95;;;15.20;1.00;;;;;;5012188;28;20057;-87
2023/06/11 03:04:09;;;;;;;1.77;1.27;;;15.10;1.00;;;;;;5013560;28;20053;-87
2023/06/11 03:06:35;;;;;;;2.47;1.20;;;15.10;26.90;;;;;;5011757;28;20060;-87
2023/06/11 03:09:01;;;;;;;11.40;1.63;;;15.40;99.90;;;;;;5027964;28;20413;-87
2023/06/11 03:11:26;;;;;;;5.53;1.38;;;14.80;99.90;;;;;;5010856;28;20057;-86
2023/06/11 03:13:52;;;;;;;1.45;1.08;;;14.80;99.90;;;;;;5012686;28;20046;-87
2023/06/11 03:16:18;;;;;;;0.22;0.22;;;14.80;99.90;;;;;;5012258;28;20053;-86
2023/06/11 03:18:43;;;;;;;0.47;0.47;;;14.70;99.90;;;;;;5027285;28;20080;-86
2023/06/11 03:21:10;;;;;;;0.98;0.85;;;14.80;99.90;;;;;;5012563;28;20053;-87
2023/06/11 03:23:36;;;;;;;0.73;0.38;;;15.50;99.90;;;;;;5028602;28;20477;-87
2023/06/11 03:26:01;;;;;;;0.65;0.50;;;14.70;99.90;;;;;;5011345;28;20038;-86
2023/06/11 03:28:27;;;;;;;3.42;0.98;;;14.80;99.90;;;;;;5011101;28;20052;-87
2023/06/11 03:30:53;;;;;;;5.15;1.55;;;14.90;99.90;;;;;;5010998;28;20504;-87
2023/06/11 03:33:18;;;;;;;1.23;0.98;;;14.90;99.90;;;;;;5012637;28;20088;-87
2023/06/11 03:35:44;;;;;;;1.60;1.13;;;15.10;99.90;;;;;;5013350;28;20049;-86
2023/06/11 03:38:10;;;;;;;0.52;0.52;;;15.80;99.90;;;;;;5013051;28;20096;-86
2023/06/11 03:40:35;;;;;;;1.02;0.52;;;15.50;92.60;;;;;;5011485;28;20111;-86
2023/06/11 03:43:01;;;;;;;0.65;0.65;;;15.30;99.90;;;;;;5011552;28;20049;-87
2023/06/11 03:45:27;;;;;;;3.00;1.95;;;15.60;99.90;;;;;;5011087;28;20497;-87
2023/06/11 03:47:55;;;;;;;1.45;1.30;;;15.30;82.70;;;;;;5012478;28;20056;-87
2023/06/11 03:50:22;;;;;;;1.38;0.75;;;16.40;72.00;;;;;;5012378;28;20058;-87
2023/06/11 03:52:48;;;;;;;1.23;0.88;;;15.40;22.60;;;;;;5012604;28;20077;-87
2023/06/11 03:55:14;;;;;;;1.17;0.93;;;16.40;1.00;;;;;;5028759;28;20382;-87
2023/06/11 03:57:40;;;;;;;1.50;1.23;;;15.90;1.00;;;;;;5011616;28;20099;-87
2023/06/11 04:00:07;;;;;;;1.17;0.77;;;15.60;1.00;;;;;;5032441;28;20050;-87
2023/06/11 04:02:34;;;;;;;1.38;1.27;;;15.50;1.00;;;;;;5026300;28;20046;-87
2023/06/11 04:05:01;;;;;;;11.98;1.63;;;16.90;1.00;;;;;;5043418;28;20054;-87
2023/06/11 04:07:27;;;;;;;1.38;0.95;;;15.70;99.90;;;;;;5031345;28;20065;-87
2023/06/11 04:09:53;;;;;;;1.50;0.75;;;16.30;1.00;;;;;;5030834;28;20030;-87
2023/06/11 04:12:19;;;;;;;0.55;0.50;;;16.20;99.90;;;;;;5046034;28;20042;-87
2023/06/11 04:14:45;;;;;;;1.48;0.95;;;15.70;99.90;;;;;;5029807;28;20084;-87
2023/06/11 04:17:10;;;;;;;0.63;0.47;;;15.80;99.90;;;;;;5030782;28;20041;-87
2023/06/11 04:19:36;;;;;;;2.05;1.50;;;17.30;99.90;;;;;;5040084;28;20049;-87
2023/06/11 04:22:02;;;;;;;1.25;1.02;;;16.40;99.90;;;;;;5012987;28;20052;-87
2023/06/11 04:24:28;;;;;;;1.48;1.00;;;16.00;99.90;;;;;;5014448;28;20053;-87
2023/06/11 04:26:54;;;;;;;2.40;0.93;;;16.60;99.90;;;;;;5013509;28;20049;-87
2023/06/11 04:29:20;;;;;;;1.30;1.20;;;16.30;24.60;;;;;;5012301;28;20378;-87
2023/06/11 04:31:47;;;;;;;1.13;1.02;;;16.50;99.90;;;;;;5011774;28;20057;-87
2023/06/11 04:34:16;;;;;;;2.35;1.42;;;16.60;99.90;;;;;;5012772;28;20364;-88
2023/06/11 04:36:43;;;;;;;1.77;1.13;;;16.80;1.00;;;;;;5028076;28;20049;-87
2023/06/11 04:39:08;;;;;;;2.92;1.55;;;16.80;99.90;;;;;;5012820;28;20052;-87
2023/06/11 04:41:36;;;;;;;0.88;0.60;;;16.80;1.00;;;;;;5014415;28;20089;-87
2023/06/11 04:44:03;;;;;;;0.40;0.35;;;17.20;1.00;;;;;;5013852;28;20053;-87
2023/06/11 04:46:29;;;;;;;2.20;1.20;;;16.80;99.90;;;;;;5010842;28;20057;-87
2023/06/11 04:49:00;;;;;;;0.70;0.70;;;17.00;99.90;;;;;;5013043;28;20053;-87
2023/06/11 04:51:32;;;;;;;11.68;2.00;;;17.60;64.90;;;;;;5012338;28;20050;-88
2023/06/11 04:54:07;;;;;;;0.35;0.35;;;18.90;99.90;;;;;;5011826;28;20137;-87
2023/06/11 04:56:33;;;;;;;0.80;0.70;;;18.90;99.90;;;;;;5027793;28;20054;-87
2023/06/11 04:59:01;;;;;;;1.45;0.88;;;19.30;1.00;;;;;;5012319;28;20112;-87
2023/06/11 05:01:32;;;;;;;2.15;1.33;;;19.70;99.90;;;;;;5012510;28;20054;-87
2023/06/11 05:03:58;;;;;;;0.80;0.77;;;19.80;1.00;;;;;;5012359;28;20046;-87
2023/06/11 05:06:25;;;;;;;1.50;1.40;;;19.80;99.90;;;;;;5011080;28;20057;-88
2023/06/11 05:08:52;;;;;;;1.23;1.02;;;20.10;99.90;;;;;;5027450;28;20468;-87
2023/06/11 05:11:18;;;;;;;7.07;1.45;;;20.40;99.90;;;;;;5027768;28;20042;-87
2023/06/11 05:13:43;;;;;;;0.82;0.50;;;20.30;99.90;;;;;;5014022;28;20057;-87
2023/06/11 05:16:09;;;;;;;2.63;1.35;;;21.10;99.90;;;;;;5015274;28;20057;-87
2023/06/11 05:18:35;;;;;;;1.38;0.85;;;20.80;99.90;;;;;;5014780;28;20136;-87
2023/06/11 05:21:01;;;;;;;1.15;1.05;;;21.80;13.20;;;;;;5014724;28;20392;-87
2023/06/11 05:23:29;;;;;;;2.05;1.10;;;21.40;1.00;;;;;;5029724;28;20042;-87
2023/06/11 05:26:00;;;;;;;1.67;1.55;;;21.60;1.00;;;;;;5013286;28;20054;-88
2023/06/11 05:28:27;;;;;;;1.45;0.90;;;21.10;1.00;;;;;;5013523;28;20037;-87
2023/06/11 05:30:53;;;;;;;0.75;0.68;;;21.10;1.00;;;;;;5029903;28;20892;-88
2023/06/11 05:33:20;;;;;;;1.48;1.38;;;21.50;1.00;;;;;;5030205;28;20114;-87
2023/06/11 05:35:46;;;;;;;6.78;1.10;;;21.80;1.00;;;;;;5016934;28;20058;-87
2023/06/11 05:38:12;;;;;;;0.75;0.50;;;22.40;1.00;;;;;;5017936;28;20125;-88
2023/06/11 05:40:38;;;;;;;2.10;0.90;;;22.90;1.00;;;;;;5015312;28;20073;-87
2023/06/11 05:43:04;;;;;;;2.35;1.33;;;22.60;1.00;;;;;;5017207;28;20129;-87
2023/06/11 05:45:31;;;;;;;1.75;1.33;;;22.60;99.90;;;;;;5030663;28;20058;-87
2023/06/11 05:47:57;;;;;;;0.98;0.77;;;23.20;99.90;;;;;;5013282;28;20050;-87
2023/06/11 05:50:23;;;;;;;0.43;0.43;;;22.50;99.90;;;;;;5015173;28;20046;-87
2023/06/11 05:52:49;;;;;;;1.60;0.75;;;23.00;99.90;;;;;;5016082;28;20064;-87
2023/06/11 05:55:14;;;;;;;1.65;1.13;;;23.20;99.90;;;;;;5016669;28;20065;-87
2023/06/11 05:57:40;;;;;;;0.98;0.90;;;23.20;99.90;;;;;;5016233;28;20046;-88
2023/06/11 06:00:09;;;;;;;1.40;1.23;;;23.00;99.90;;;;;;5016029;28;20050;-88
2023/06/11 06:02:35;;;;;;;1.35;1.08;;;23.20;99.90;;;;;;5011880;28;20045;-87
2023/06/11 06:05:01;;;;;;;0.60;0.30;;;23.40;99.90;;;;;;5014531;28;20042;-87
2023/06/11 06:07:26;;;;;;;1.27;1.02;;;23.60;99.90;;;;;;5030284;28;20045;-88
2023/06/11 06:09:52;;;;;;;0.77;0.77;;;23.70;99.90;;;;;;4995442;28;20053;-88
2023/06/11 06:12:18;;;;;;;0.55;0.30;;;24.20;99.90;;;;;;5010659;28;20102;-88
2023/06/11 06:14:43;;;;;;;1.38;1.10;;;24.40;99.90;;;;;;5009523;28;20123;-88
2023/06/11 06:17:09;;;;;;;0.90;0.68;;;25.10;99.90;;;;;;5009294;28;20092;-88
2023/06/11 06:19:35;;;;;;;0.65;0.32;;;24.80;99.90;;;;;;5009554;28;20054;-88
2023/06/11 06:22:00;;;;;;;1.35;1.13;;;25.00;99.90;;;;;;5009377;28;20049;-88
2023/06/11 06:24:26;;;;;;;0.80;0.60;;;24.60;99.90;;;;;;5009406;28;20048;-88
2023/06/11 06:26:56;;;;;;;4.05;1.35;;;24.80;99.90;;;;;;5009475;28;20042;-88
2023/06/11 06:29:28;;;;;;;2.60;1.75;;;24.20;99.90;;;;;;5009371;28;20108;-88
2023/06/11 06:31:54;;;;;;;1.25;0.95;;;24.30;99.90;;;;;;5009345;28;20061;-88
2023/06/11 06:34:20;;;;;;;0.57;0.57;;;24.50;99.90;;;;;;5008845;28;20202;-88
2023/06/11 06:36:46;;;;;;;0.93;0.70;;;24.30;99.90;;;;;;5009138;28;20136;-88
2023/06/11 06:39:12;;;;;;;0.68;0.57;;;24.10;99.90;;;;;;5009032;28;20096;-88
2023/06/11 06:41:38;;;;;;;1.88;0.85;;;24.40;99.90;;;;;;5009081;28;20484;-88
2023/06/11 06:44:03;;;;;;;0.90;0.68;;;25.20;99.90;;;;;;5008710;28;20072;-88
2023/06/11 06:46:30;;;;;;;1.58;1.20;;;25.50;99.90;;;;;;5023914;28;20041;-88
2023/06/11 06:48:56;;;;;;;0.75;0.50;;;25.20;99.90;;;;;;5008434;28;20049;-88
2023/06/11 06:51:21;;;;;;;0.50;0.40;;;25.40;99.90;;;;;;5009353;28;20054;-88
2023/06/11 06:53:47;;;;;;;0.50;0.50;;;25.00;99.90;;;;;;5009514;28;20132;-88
2023/06/11 06:56:13;;;;;;;0.75;0.55;;;25.80;99.90;;;;;;5009477;28;20081;-88
2023/06/11 06:58:39;;;;;;;0.55;0.43;;;26.40;99.90;;;;;;5009615;28;20050;-88
2023/06/11 07:01:05;;;;;;;3.83;1.52;;;26.80;99.90;;;;;;5009563;28;20125;-88
2023/06/11 07:03:30;;;;;;;0.68;0.50;;;26.60;99.90;;;;;;5009031;28;20084;-88
2023/06/11 07:05:56;;;;;;;1.05;0.98;;;26.90;99.90;;;;;;5009642;28;20409;-88
2023/06/11 07:08:22;;;;;;;0.75;0.63;;;27.60;99.90;;;;;;5009351;28;20117;-88
2023/06/11 07:10:50;;;;;;;0.57;0.57;;;26.30;99.90;;;;;;5007886;28;20046;-87
2023/06/11 07:13:16;;;;;;;1.38;1.10;;;26.80;99.90;;;;;;5009537;28;20062;-88
2023/06/11 07:15:42;;;;;;;0.60;0.55;;;26.20;99.90;;;;;;5009194;28;20049;-88
2023/06/11 07:18:08;;;;;;;0.65;0.52;;;26.20;99.90;;;;;;5009054;28;20505;-87
2023/06/11 07:20:34;;;;;;;2.88;0.90;;;26.50;99.90;;;;;;5009244;28;20096;-87
2023/06/11 07:23:01;;;;;;;1.15;0.98;;;26.80;99.90;;;;;;5007741;28;20084;-88
2023/06/11 07:25:28;;;;;;;0.70;0.70;;;27.10;99.90;;;;;;5009692;28;20053;-88
2023/06/11 07:28:01;;;;;;;2.20;1.00;;;26.90;99.90;;;;;;5007779;28;20069;-87
2023/06/11 07:30:31;;;;;;;4.53;0.65;;;27.60;99.90;;;;;;5008597;28;20536;-88
2023/06/11 07:32:57;;;;;;;1.13;0.82;;;28.20;99.90;;;;;;5009344;28;20345;-88
2023/06/11 07:35:24;;;;;;;1.05;0.88;;;28.50;99.90;;;;;;5009083;28;20049;-88
2023/06/11 07:37:50;;;;;;;1.85;1.30;;;28.80;99.90;;;;;;5007507;28;20050;-88
2023/06/11 07:40:16;;;;;;;1.65;0.88;;;29.50;99.90;;;;;;5009168;28;20073;-88
2023/06/11 07:42:43;;;;;;;3.25;0.65;;;28.70;99.90;;;;;;5008719;28;20168;-88
2023/06/11 07:45:09;;;;;;;0.90;0.82;;;28.10;99.90;;;;;;5009399;28;20046;-88
2023/06/11 07:47:36;;;;;;;0.30;0.30;;;28.50;99.90;;;;;;5008901;28;20061;-88
2023/06/11 07:50:03;;;;;;;0.95;0.85;;;28.70;99.90;;;;;;5008538;28;20086;-87
2023/06/11 07:52:29;;;;;;;1.75;1.17;;;29.40;99.90;;;;;;5007701;28;20066;-88
2023/06/11 07:54:55;;;;;;;1.15;0.95;;;30.30;99.90;;;;;;5006619;28;20056;-88
2023/06/11 07:57:21;;;;;;;0.95;0.70;;;30.10;99.90;;;;;;5006798;28;20101;-88
2023/06/11 07:59:47;;;;;;;1.40;1.05;;;30.70;99.90;;;;;;5006100;28;20053;-88
2023/06/11 08:02:14;;;;;;;0.65;0.50;;;29.70;99.90;;;;;;5007841;28;20653;-88
2023/06/11 08:04:40;;;;;;;0.75;0.52;;;29.10;99.90;;;;;;5007779;28;20053;-88
2023/06/11 08:07:07;;;;;;;1.70;0.88;;;28.60;99.90;;;;;;5007831;28;20062;-88
2023/06/11 08:09:36;;;;;;;2.22;1.08;;;28.70;99.90;;;;;;5007387;28;20061;-88
2023/06/11 08:12:03;;;;;;;3.20;1.17;;;28.40;99.90;;;;;;5007385;28;20061;-88
2023/06/11 08:14:29;;;;;;;1.60;0.93;;;28.80;99.90;;;;;;5022575;28;20045;-88
2023/06/11 08:16:55;;;;;;;1.15;1.05;;;29.40;99.90;;;;;;5007485;28;20050;-88
2023/06/11 08:19:21;;;;;;;0.68;0.52;;;30.00;99.90;;;;;;5007649;28;20041;-88
2023/06/11 08:21:47;;;;;;;1.50;1.13;;;30.50;99.90;;;;;;5008578;28;20092;-88
2023/06/11 08:24:13;;;;;;;0.88;0.68;;;30.60;99.90;;;;;;5020929;28;20085;-88
2023/06/11 08:26:39;;;;;;;1.60;0.73;;;30.80;99.90;;;;;;5024964;28;20041;-88
2023/06/11 08:29:05;;;;;;;2.00;1.08;;;30.50;99.90;;;;;;5023850;28;20132;-88
2023/06/11 08:31:31;;;;;;;0.73;0.55;;;31.30;99.90;;;;;;5023330;28;20144;-88
2023/06/11 08:33:57;;;;;;;6.95;0.75;;;31.60;99.90;;;;;;5023928;28;20057;-88
2023/06/11 08:36:22;;;;;;;0.82;0.73;;;31.00;99.90;;;;;;5023849;28;20045;-88
2023/06/11 08:38:48;;;;;;;0.30;0.30;;;32.20;99.90;;;;;;5023625;28;20073;-88
2023/06/11 08:41:17;;;;;;;0.90;0.73;;;32.10;99.90;;;;;;5023779;28;21056;-88
2023/06/11 08:43:43;;;;;;;1.35;0.82;;;30.70;99.90;;;;;;5023559;28;20077;-88
2023/06/11 08:46:16;;;;;;;1.95;0.80;;;30.90;99.90;;;;;;5023056;28;20085;-89
2023/06/11 08:48:43;;;;;;;0.63;0.63;;;30.90;99.90;;;;;;5023541;28;20053;-88
2023/06/11 08:51:11;;;;;;;1.75;1.38;;;30.80;99.90;;;;;;5023869;28;20554;-88
2023/06/11 08:53:38;;;;;;;2.05;0.93;;;31.90;99.90;;;;;;5021680;28;20423;-88
2023/06/11 08:56:05;;;;;;;0.50;0.50;;;32.80;99.90;;;;;;5021879;28;20500;-88
2023/06/11 08:58:34;;;;;;;2.83;0.88;;;33.00;99.90;;;;;;5021897;28;20080;-88
2023/06/11 09:01:10;;;;;;;1.83;1.00;;;32.50;99.90;;;;;;5023179;28;20077;-88
2023/06/11 09:03:36;;;;;;;1.10;0.93;;;32.60;99.90;;;;;;5022753;28;20522;-88
2023/06/11 09:06:01;;;;;;;0.80;0.70;;;32.90;99.90;;;;;;5022872;28;20045;-88
2023/06/11 09:08:28;;;;;;;2.75;0.95;;;32.40;99.90;;;;;;5025002;28;20049;-88
2023/06/11 09:10:54;;;;;;;0.10;0.10;;;32.90;99.90;;;;;;5026909;28;20049;-88
2023/06/11 09:13:25;;;;;;;0.98;0.82;;;33.60;99.90;;;;;;5027278;28;20107;-88
2023/06/11 09:15:58;;;;;;;2.30;1.05;;;33.20;99.90;;;;;;5027059;28;20128;-88
2023/06/11 09:18:26;;;;;;;1.70;0.80;;;33.00;99.90;;;;;;5027115;28;20049;-89
2023/06/11 09:20:56;;;;;;;4.63;1.20;;;32.30;99.90;;;;;;5027159;28;20103;-88
2023/06/11 09:23:30;;;;;;;0.88;0.60;;;32.30;99.90;;;;;;5026648;28;20368;-88
2023/06/11 09:25:57;;;;;;;0.50;0.50;;;32.10;99.90;;;;;;5026723;28;20041;-88
2023/06/11 09:28:33;;;;;;;2.25;0.75;;;33.40;99.90;;;;;;5026501;28;20119;-88
2023/06/11 09:31:01;;;;;;;0.85;0.60;;;33.40;99.90;;;;;;5026653;28;20053;-88
2023/06/11 09:33:28;;;;;;;0.75;0.52;;;34.40;99.90;;;;;;5026311;28;20139;-89
2023/06/11 09:35:54;;;;;;;0.60;0.50;;;34.80;99.90;;;;;;5026607;28;20075;-88
2023/06/11 09:38:21;;;;;;;0.55;0.52;;;34.40;93.70;;;;;;5026191;28;20400;-88
2023/06/11 09:40:48;;;;;;;1.90;1.40;;;34.70;95.60;;;;;;5026547;28;20488;-88
2023/06/11 09:43:15;;;;;;;1.55;0.70;;;33.70;66.30;;;;;;5024764;28;20053;-88
2023/06/11 09:45:41;;;;;;;0.90;0.52;;;33.20;62.30;;;;;;5024721;28;20093;-88
2023/06/11 09:48:12;;;;;;;0.57;0.57;;;33.60;66.80;;;;;;5026394;28;20049;-88
2023/06/11 09:50:39;;;;;;;0.28;0.28;;;32.60;44.50;;;;;;5026704;28;20439;-88
2023/06/11 09:53:06;;;;;;;1.58;0.65;;;32.40;40.10;;;;;;5026338;28;20049;-88
2023/06/11 09:55:35;;;;;;;1.55;1.08;;;32.30;34.00;;;;;;5026441;28;20050;-88
2023/06/11 09:58:02;;;;;;;0.60;0.55;;;32.10;28.90;;;;;;5026520;28;20049;-88
2023/06/11 10:00:29;;;;;;;3.45;0.68;;;32.60;40.40;;;;;;5024568;28;20057;-88
2023/06/11 10:02:56;;;;;;;0.70;0.52;;;32.70;51.10;;;;;;5026160;28;20060;-88
2023/06/11 10:05:22;;;;;;;3.40;1.65;;;32.70;49.50;;;;;;5026035;28;20384;-88
2023/06/11 10:08:05;;;;;;;0.43;0.43;;;32.90;45.00;;;;;;5023949;28;20056;-89
2023/06/11 10:10:36;;;;;;;0.65;0.55;;;32.40;32.40;;;;;;5026048;28;20099;-88
2023/06/11 10:13:02;;;;;;;1.08;0.75;;;32.30;27.00;;;;;;5026134;28;20049;-88
2023/06/11 10:15:31;;;;;;;0.55;0.45;;;31.90;17.40;;;;;;5025710;28;20522;-88
2023/06/11 10:17:56;;;;;;;0.28;0.28;;;31.60;15.10;;;;;;5024106;28;20187;-88
2023/06/11 10:20:27;;;;;;;0.68;0.40;;;31.80;16.90;;;;;;5024918;28;20099;-88
2023/06/11 10:23:09;;;;;;;1.95;0.85;;;31.60;9.30;;;;;;5023714;28;20045;-88
2023/06/11 10:25:36;;;;;;;0.45;0.45;;;32.10;34.10;;;;;;5025622;28;20084;-88
2023/06/11 10:28:01;;;;;;;0.45;0.40;;;32.20;26.10;;;;;;5025781;28;20061;-88
2023/06/11 10:30:27;;;;;;;1.13;1.00;;;31.60;10.50;;;;;;5025137;28;20064;-88
2023/06/11 10:32:58;;;;;;;2.13;1.08;;;31.20;2.70;;;;;;5025750;28;20094;-88
2023/06/11 10:35:28;;;;;;;0.20;0.20;;;31.20;1.00;;;;;;5025518;28;20054;-88
2023/06/11 10:38:05;;;;;;;0.60;0.55;;;31.50;1.00;;;;;;5023978;28;20490;-88
2023/06/11 10:40:32;;;;;;;0.63;0.50;;;32.00;23.50;;;;;;5023711;28;20444;-88
2023/06/11 10:42:58;;;;;;;0.20;0.20;;;31.60;20.00;;;;;;5025016;28;20389;-88
2023/06/11 10:45:38;;;;;;;1.33;0.77;;;31.60;1.00;;;;;;5025307;28;20310;-87
2023/06/11 10:48:04;;;;;;;1.98;0.95;;;31.60;1.00;;;;;;5025274;28;20056;-88
2023/06/11 10:50:31;;;;;;;0.35;0.30;;;31.90;5.50;;;;;;5025835;28;20121;-89
2023/06/11 10:52:59;;;;;;;2.40;0.68;;;31.90;1.20;;;;;;5026412;28;20057;-88
2023/06/11 10:55:29;;;;;;;2.00;1.20;;;32.00;1.00;;;;;;5025799;28;20507;-88
2023/06/11 10:57:55;;;;;;;0.98;0.77;;;31.90;1.00;;;;;;5024816;28;20562;-88
2023/06/11 11:00:22;;;;;;;0.77;0.50;;;32.10;1.00;;;;;;5025622;28;20052;-88
2023/06/11 11:02:48;;;;;;;1.17;0.52;;;32.40;1.00;;;;;;5025634;28;20091;-88
2023/06/11 11:05:14;;;;;;;1.70;0.68;;;32.90;1.50;;;;;;5025193;28;20238;-88
2023/06/11 11:07:44;;;;;;;1.10;0.70;;;32.50;1.00;;;;;;5025059;28;20141;-88
2023/06/11 11:10:11;;;;;;;1.73;0.70;;;32.10;1.00;;;;;;5025047;28;20428;-88
2023/06/11 11:12:42;;;;;;;1.52;1.25;;;32.60;1.00;;;;;;5024511;28;20500;-88
2023/06/11 11:15:10;;;;;;;2.10;0.70;;;32.70;1.00;;;;;;5024114;28;20041;-88
2023/06/11 11:17:37;;;;;;;0.65;0.60;;;33.20;1.00;;;;;;5024463;28;20120;-88
2023/06/11 11:20:07;;;;;;;0.20;0.17;;;33.40;1.00;;;;;;5024960;28;20045;-88
2023/06/11 11:22:33;;;;;;;0.65;0.38;;;33.20;1.00;;;;;;5024366;28;20458;-88
2023/06/11 11:25:04;;;;;;;0.90;0.70;;;33.10;1.00;;;;;;5024524;28;20714;-88
2023/06/11 11:27:30;;;;;;;1.30;0.77;;;33.40;1.00;;;;;;5024535;28;20048;-88
2023/06/11 11:29:58;;;;;;;1.08;0.82;;;33.40;1.00;;;;;;5022955;28;20049;-89
2023/06/11 11:32:28;;;;;;;1.23;0.85;;;33.50;1.00;;;;;;5022308;28;20404;-88
2023/06/11 11:34:58;;;;;;;0.85;0.68;;;33.70;1.00;;;;;;5024524;28;20049;-88
2023/06/11 11:37:28;;;;;;;0.28;0.28;;;34.00;1.00;;;;;;5024385;28;20060;-88
2023/06/11 11:39:54;;;;;;;0.85;0.52;;;34.30;1.00;;;;;;5024351;28;20060;-88
2023/06/11 11:42:22;;;;;;;0.60;0.55;;;35.00;1.00;;;;;;5024554;28;20045;-88
2023/06/11 11:44:53;;;;;;;0.75;0.50;;;35.30;1.00;;;;;;5024201;28;20049;-88
2023/06/11 11:47:21;;;;;;;0.30;0.30;;;34.20;1.00;;;;;;5024268;28;20073;-88
2023/06/11 11:49:56;;;;;;;0.88;0.38;;;34.00;1.00;;;;;;5023937;28;20046;-88
2023/06/11 11:52:23;;;;;;;0.45;0.45;;;34.30;1.00;;;;;;5024038;28;20052;-88
2023/06/11 11:54:50;;;;;;;0.40;0.40;;;35.50;1.00;;;;;;5023666;28;20045;-88
2023/06/11 11:57:20;;;;;;;1.30;0.90;;;36.70;1.00;;;;;;5023519;28;20053;-88
2023/06/11 11:59:49;;;;;;;0.55;0.50;;;36.90;1.00;;;;;;5022789;28;20401;-89
2023/06/11 12:02:15;;;;;;;2.88;1.38;;;36.30;1.00;;;;;;5024654;28;20098;-88
2023/06/11 12:04:45;;;;;;;1.48;0.93;;;36.10;1.00;;;;;;5023859;28;20057;-88
2023/06/11 12:07:13;;;;;;;1.70;0.85;;;36.60;1.00;;;;;;5037918;28;20534;-88
2023/06/11 12:09:39;;;;;;;1.23;0.70;;;36.00;1.00;;;;;;5041805;28;20021;-88
2023/06/11 12:12:07;;;;;;;2.97;0.73;;;34.20;1.00;;;;;;5040071;28;20063;-89
2023/06/11 12:14:36;;;;;;;0.85;0.43;;;34.00;1.00;;;;;;5038919;28;20045;-89
2023/06/11 12:17:02;;;;;;;2.58;1.33;;;34.60;1.00;;;;;;5040643;28;20045;-89
2023/06/11 12:19:29;;;;;;;2.47;0.80;;;34.30;1.00;;;;;;5040896;28;20041;-88
2023/06/11 12:21:58;;;;;;;2.10;1.08;;;35.10;1.00;;;;;;5032544;28;20049;-89
2023/06/11 12:24:24;;;;;;;4.60;0.98;;;34.80;1.00;;;;;;5023824;28;20048;-88
2023/06/11 12:26:53;;;;;;;1.20;0.80;;;35.50;1.00;;;;;;5023669;28;20497;-88
2023/06/11 12:29:19;;;;;;;0.98;0.73;;;35.50;1.00;;;;;;5024300;28;20102;-88
2023/06/11 12:31:48;;;;;;;0.28;0.20;;;36.40;1.00;;;;;;5023781;28;20048;-88
2023/06/11 12:34:17;;;;;;;1.65;1.35;;;37.20;1.00;;;;;;5023606;28;20519;-89
2023/06/11 12:36:44;;;;;;;0.30;0.30;;;34.50;1.00;;;;;;5022509;28;20045;-89
2023/06/11 12:39:10;;;;;;;1.40;0.55;;;33.70;1.00;;;;;;5023788;28;20052;-89
2023/06/11 12:41:36;;;;;;;0.55;0.50;;;33.80;99.90;;;;;;5024023;28;20045;-89
2023/06/11 12:44:02;;;;;;;1.05;0.75;;;34.40;1.00;;;;;;5026659;28;20046;-89
2023/06/11 12:46:30;;;;;;;1.77;1.00;;;35.20;1.00;;;;;;5027964;28;20061;-89
2023/06/11 12:48:56;;;;;;;0.63;0.60;;;36.40;1.00;;;;;;5027947;28;20085;-89
2023/06/11 12:51:22;;;;;;;1.40;0.88;;;35.70;1.00;;;;;;5026069;28;20089;-88